createdAt,value
2023-01-20T00:00:45.569Z,-4.68
2023-01-20T00:03:11.992Z,-4.79
2023-01-20T00:05:38.483Z,-4.86
2023-01-20T00:08:05.064Z,-4.95
2023-01-20T00:10:31.656Z,-4.99
2023-01-20T00:12:58.090Z,-5.05
2023-01-20T00:15:24.618Z,-5.01
2023-01-20T00:17:51.029Z,-4.95
2023-01-20T00:20:17.785Z,-4.88
2023-01-20T00:22:44.354Z,-4.80
2023-01-20T00:25:10.979Z,-4.73
2023-01-20T00:27:37.500Z,-4.66
2023-01-20T00:30:04.273Z,-4.52
2023-01-20T00:32:30.954Z,-4.48
2023-01-20T00:34:57.421Z,-4.56
2023-01-20T00:37:23.899Z,-4.65
2023-01-20T00:39:50.400Z,-4.80
2023-01-20T00:42:16.801Z,-5.05
2023-01-20T00:44:43.272Z,-5.31
2023-01-20T00:47:09.869Z,-5.52
2023-01-20T00:49:36.292Z,-5.57
2023-01-20T00:52:02.718Z,-5.53
2023-01-20T00:54:29.142Z,-5.47
2023-01-20T00:56:55.563Z,-5.42
2023-01-20T00:59:22.060Z,-5.32
2023-01-20T01:01:48.580Z,-5.22
2023-01-20T01:04:15.052Z,-5.33
2023-01-20T01:06:41.474Z,-5.44
2023-01-20T01:09:08.065Z,-5.45
2023-01-20T01:11:34.489Z,-5.44
2023-01-20T01:14:01.014Z,-5.38
2023-01-20T01:16:27.809Z,-5.33
2023-01-20T01:18:54.977Z,-5.29
2023-01-20T01:21:21.701Z,-5.22
2023-01-20T01:23:48.149Z,-5.10
2023-01-20T01:26:14.746Z,-4.96
2023-01-20T01:28:41.244Z,-4.83
2023-01-20T01:31:07.819Z,-4.67
2023-01-20T01:33:34.475Z,-4.62
2023-01-20T01:36:01.601Z,-4.56
2023-01-20T01:38:28.423Z,-4.53
2023-01-20T01:40:55.286Z,-4.56
2023-01-20T01:43:25.994Z,-4.60
2023-01-20T01:46:08.270Z,-4.59
2023-01-20T01:48:34.763Z,-4.58
2023-01-20T01:51:13.383Z,-4.56
2023-01-20T01:53:42.113Z,-4.73
2023-01-20T01:56:08.536Z,-4.83
2023-01-20T01:58:35.739Z,-4.94
2023-01-20T02:01:02.330Z,-5.01
2023-01-20T02:03:29.049Z,-5.02
2023-01-20T02:05:55.486Z,-5.03
2023-01-20T02:08:21.916Z,-5.02
2023-01-20T02:10:48.353Z,-4.99
2023-01-20T02:13:14.796Z,-4.93
2023-01-20T02:15:53.457Z,-4.89
2023-01-20T02:18:26.260Z,-4.90
2023-01-20T02:20:52.900Z,-4.99
2023-01-20T02:23:19.549Z,-5.07
2023-01-20T02:26:04.715Z,-5.17
2023-01-20T02:28:37.509Z,-5.25
2023-01-20T02:31:25.437Z,-5.39
2023-01-20T02:33:58.157Z,-5.49
2023-01-20T02:36:29.698Z,-5.59
2023-01-20T02:38:57.062Z,-5.72
2023-01-20T02:41:24.620Z,-5.83
2023-01-20T02:43:53.254Z,-5.93
2023-01-20T02:46:46.061Z,-6.02
2023-01-20T02:49:42.540Z,-6.09
2023-01-20T02:52:10.696Z,-6.20
2023-01-20T02:54:37.659Z,-6.24
2023-01-20T02:57:04.359Z,-6.34
2023-01-20T02:59:31.254Z,-6.53
2023-01-20T03:02:05.186Z,-6.78
2023-01-20T03:04:37.968Z,-6.92
2023-01-20T03:07:04.449Z,-6.97
2023-01-20T03:09:31.442Z,-6.99
2023-01-20T03:11:59.323Z,-6.93
2023-01-20T03:14:25.946Z,-6.87
2023-01-20T03:16:52.468Z,-6.81
2023-01-20T03:19:20.510Z,-6.79
2023-01-20T03:21:47.225Z,-6.74
2023-01-20T03:24:13.694Z,-6.78
2023-01-20T03:26:40.105Z,-6.80
2023-01-20T03:29:07.918Z,-6.86
2023-01-20T03:31:55.012Z,-6.91
2023-01-20T03:34:22.127Z,-7.03
2023-01-20T03:36:48.584Z,-7.05
2023-01-20T03:39:15.016Z,-7.02
2023-01-20T03:41:46.590Z,-7.06
2023-01-20T03:44:21.370Z,-7.11
2023-01-20T03:46:50.891Z,-7.13
2023-01-20T03:49:27.701Z,-7.08
2023-01-20T03:51:54.281Z,-6.95
2023-01-20T03:54:22.836Z,-6.91
2023-01-20T03:57:04.382Z,-6.88
2023-01-20T03:59:32.525Z,-6.78
2023-01-20T04:01:59.260Z,-6.77
2023-01-20T04:04:25.758Z,-6.80
2023-01-20T04:06:52.263Z,-7.06
2023-01-20T04:09:26.257Z,-6.95
2023-01-20T04:11:52.898Z,-7.00
2023-01-20T04:14:19.365Z,-7.01
2023-01-20T04:16:52.426Z,-6.96
2023-01-20T04:19:18.912Z,-6.89
2023-01-20T04:22:04.102Z,-6.84
2023-01-20T04:24:35.538Z,-6.77
2023-01-20T04:27:02.030Z,-6.80
2023-01-20T04:29:28.479Z,-6.81
2023-01-20T04:32:01.327Z,-7.00
2023-01-20T04:34:28.154Z,-7.15
2023-01-20T04:36:54.628Z,-7.35
2023-01-20T04:39:21.080Z,-7.47
2023-01-20T04:41:47.854Z,-7.54
2023-01-20T04:44:14.331Z,-7.53
2023-01-20T04:46:40.932Z,-7.50
2023-01-20T04:49:07.584Z,-7.44
2023-01-20T04:51:34.090Z,-7.36
2023-01-20T04:54:00.571Z,-7.28
2023-01-20T04:56:27.290Z,-7.17
2023-01-20T04:58:53.717Z,-7.11
2023-01-20T05:01:20.306Z,-7.15
2023-01-20T05:03:46.794Z,-7.16
2023-01-20T05:06:13.336Z,-7.15
2023-01-20T05:08:39.818Z,-7.14
2023-01-20T05:11:06.409Z,-7.10
2023-01-20T05:13:33.728Z,-7.09
2023-01-20T05:16:02.828Z,-7.19
2023-01-20T05:18:29.634Z,-7.19
2023-01-20T05:20:56.080Z,-7.22
2023-01-20T05:23:22.580Z,-7.19
2023-01-20T05:25:52.311Z,-7.19
2023-01-20T05:28:18.905Z,-7.16
2023-01-20T05:30:45.592Z,-7.10
2023-01-20T05:33:12.173Z,-7.10
2023-01-20T05:35:38.885Z,-7.04
2023-01-20T05:38:05.465Z,-7.02
2023-01-20T05:40:32.067Z,-6.97
2023-01-20T05:43:01.982Z,-6.93
2023-01-20T05:45:28.831Z,-6.90
2023-01-20T05:47:58.711Z,-6.90
2023-01-20T05:50:25.573Z,-6.94
2023-01-20T05:52:52.137Z,-7.01
2023-01-20T05:55:18.698Z,-6.99
2023-01-20T06:01:07.793Z,-6.96
2023-01-20T06:03:34.474Z,-6.96
2023-01-20T06:06:01.861Z,-6.95
2023-01-20T06:11:56.058Z,-6.89
2023-01-20T06:14:22.735Z,-6.91
2023-01-20T06:16:49.905Z,-6.90
2023-01-20T06:19:16.386Z,-7.00
2023-01-20T06:21:43.401Z,-7.06
2023-01-20T06:24:10.844Z,-7.09
2023-01-20T06:26:37.304Z,-7.05
2023-01-20T06:29:03.814Z,-7.03
2023-01-20T06:31:30.332Z,-6.95
2023-01-20T06:33:56.852Z,-6.88
2023-01-20T06:36:23.302Z,-6.84
2023-01-20T06:38:51.127Z,-6.79
2023-01-20T06:41:17.801Z,-6.75
2023-01-20T06:43:44.259Z,-6.71
2023-01-20T06:46:11.342Z,-6.66
2023-01-20T06:48:37.798Z,-6.58
2023-01-20T06:51:05.064Z,-6.52
2023-01-20T06:53:31.578Z,-6.48
2023-01-20T06:55:58.341Z,-6.44
2023-01-20T06:58:25.309Z,-6.36
2023-01-20T07:00:52.198Z,-6.29
2023-01-20T07:03:18.730Z,-6.23
2023-01-20T07:05:50.870Z,-6.09
2023-01-20T07:08:17.363Z,-5.98
2023-01-20T07:11:10.676Z,-5.89
2023-01-20T07:13:37.129Z,-5.78
2023-01-20T07:16:03.652Z,-5.71
2023-01-20T07:18:30.145Z,-5.56
2023-01-20T07:20:56.711Z,-5.52
2023-01-20T07:23:23.457Z,-5.42
2023-01-20T07:26:06.276Z,-5.28
2023-01-20T07:28:32.843Z,-5.14
2023-01-20T07:31:31.909Z,-4.99
2023-01-20T07:33:59.713Z,-4.90
2023-01-20T07:36:26.275Z,-4.78
2023-01-20T07:38:53.008Z,-4.69
2023-01-20T07:41:20.133Z,-4.61
2023-01-20T07:43:48.835Z,-4.54
2023-01-20T07:46:15.505Z,-4.46
2023-01-20T07:48:42.047Z,-4.37
2023-01-20T07:51:09.016Z,-4.25
2023-01-20T07:53:36.424Z,-4.10
2023-01-20T07:56:04.985Z,-3.93
2023-01-20T07:58:31.472Z,-3.77
2023-01-20T08:00:58.046Z,-3.57
2023-01-20T08:03:27.372Z,-3.34
2023-01-20T08:05:54.028Z,-3.17
2023-01-20T08:08:20.531Z,-3.03
2023-01-20T08:10:47.744Z,-2.83
2023-01-20T08:13:14.288Z,-2.70
2023-01-20T08:15:40.759Z,-2.60
2023-01-20T08:18:07.281Z,-2.54
2023-01-20T08:20:33.720Z,-2.43
2023-01-20T08:23:00.329Z,-2.35
2023-01-20T08:25:26.802Z,-2.24
2023-01-20T08:27:53.425Z,-2.15
2023-01-20T08:30:20.019Z,-2.01
2023-01-20T08:32:46.465Z,-1.87
2023-01-20T08:35:13.250Z,-1.72
2023-01-20T08:37:39.799Z,-1.59
2023-01-20T08:40:08.444Z,-1.43
2023-01-20T08:42:35.119Z,-1.25
2023-01-20T08:45:01.590Z,-1.09
2023-01-20T08:47:28.094Z,-0.99
2023-01-20T08:49:54.608Z,-0.87
2023-01-20T08:52:21.173Z,-0.77
2023-01-20T08:54:47.655Z,-0.76
2023-01-20T08:57:15.952Z,-0.67
2023-01-20T08:59:42.606Z,-0.64
2023-01-20T09:02:09.855Z,-0.64
2023-01-20T09:04:39.443Z,-0.59
2023-01-20T09:07:05.904Z,-0.59
2023-01-20T09:09:32.322Z,-0.59
2023-01-20T09:11:58.781Z,-0.60
2023-01-20T09:14:25.370Z,-0.65
2023-01-20T09:16:51.866Z,-0.62
2023-01-20T09:19:30.040Z,-0.50
2023-01-20T09:21:56.662Z,-0.54
2023-01-20T09:24:23.346Z,-0.61
2023-01-20T09:26:50.002Z,-0.61
2023-01-20T09:29:17.352Z,-0.57
2023-01-20T09:31:45.048Z,-0.59
2023-01-20T09:34:14.988Z,-0.60
2023-01-20T09:36:41.730Z,-0.62
2023-01-20T09:39:27.322Z,-0.63
2023-01-20T09:42:23.334Z,-0.73
2023-01-20T09:44:56.781Z,-0.78
2023-01-20T09:47:31.397Z,-0.65
2023-01-20T09:50:25.885Z,-0.65
2023-01-20T09:53:05.909Z,-0.52
2023-01-20T09:55:32.370Z,-0.47
2023-01-20T09:58:01.091Z,-0.49
2023-01-20T10:00:28.006Z,-0.47
2023-01-20T10:02:57.108Z,-0.45
2023-01-20T10:05:24.335Z,-0.38
2023-01-20T10:07:51.259Z,-0.32
2023-01-20T10:10:21.057Z,-0.35
2023-01-20T10:12:52.168Z,-0.41
2023-01-20T10:15:18.618Z,-0.36
2023-01-20T10:18:00.326Z,-0.15
2023-01-20T10:20:28.082Z,-0.10
2023-01-20T10:22:54.626Z,-0.12
2023-01-20T10:25:40.063Z,-0.10
2023-01-20T10:28:14.683Z,-0.17
2023-01-20T10:30:41.588Z,-0.23
2023-01-20T10:33:12.247Z,-0.22
2023-01-20T10:35:39.642Z,-0.14
2023-01-20T10:38:07.042Z,-0.26
2023-01-20T10:40:36.602Z,-0.33
2023-01-20T10:43:21.459Z,-0.27
2023-01-20T10:45:54.940Z,-0.24
2023-01-20T10:48:24.681Z,-0.36
2023-01-20T10:50:53.823Z,-0.38
2023-01-20T10:53:21.608Z,-0.44
2023-01-20T10:55:55.088Z,-0.35
2023-01-20T10:58:24.440Z,-0.43
2023-01-20T11:00:51.122Z,-0.40
2023-01-20T11:03:20.991Z,-0.33
2023-01-20T11:05:48.026Z,-0.43
2023-01-20T11:08:15.972Z,-0.55
2023-01-20T11:10:42.452Z,-0.53
2023-01-20T11:13:09.447Z,-0.50
2023-01-20T11:15:36.943Z,-0.50
2023-01-20T11:18:15.376Z,-0.45
2023-01-20T11:20:44.790Z,-0.45
2023-01-20T11:23:24.546Z,-0.51
2023-01-20T11:25:57.675Z,-0.50
2023-01-20T11:28:24.207Z,-0.55
2023-01-20T11:30:54.872Z,-0.53
2023-01-20T11:33:22.572Z,-0.50
2023-01-20T11:36:02.550Z,-0.49
2023-01-20T11:38:30.212Z,-0.60
2023-01-20T11:40:57.444Z,-0.54
2023-01-20T11:43:35.172Z,-0.41
2023-01-20T11:46:11.637Z,-0.19
2023-01-20T11:48:38.219Z,-0.38
2023-01-20T11:51:04.957Z,-0.59
2023-01-20T11:53:31.910Z,-0.64
2023-01-20T11:55:59.306Z,-0.62
2023-01-20T11:58:32.591Z,-0.67
2023-01-20T12:01:00.163Z,-0.58
2023-01-20T12:03:32.686Z,-0.54
2023-01-20T12:06:18.230Z,-0.61
2023-01-20T12:08:55.778Z,-0.64
2023-01-20T12:11:43.260Z,-0.56
2023-01-20T12:14:28.734Z,-0.70
2023-01-20T12:17:15.912Z,-0.82
2023-01-20T12:19:45.106Z,-0.89
2023-01-20T12:22:13.723Z,-0.88
2023-01-20T12:25:05.480Z,-0.84
2023-01-20T12:27:31.914Z,-1.01
2023-01-20T12:30:05.973Z,-1.18
2023-01-20T12:32:33.348Z,-1.23
2023-01-20T12:35:00.111Z,-1.24
2023-01-20T12:37:50.974Z,-1.26
2023-01-20T12:40:35.965Z,-1.28
2023-01-20T12:43:27.024Z,-1.30
2023-01-20T12:46:00.098Z,-1.27
2023-01-20T12:48:34.456Z,-1.29
2023-01-20T12:51:05.763Z,-1.25
2023-01-20T12:53:51.318Z,-1.29
2023-01-20T12:56:56.249Z,-1.35
2023-01-20T12:59:30.177Z,-1.38
2023-01-20T13:02:00.517Z,-1.34
2023-01-20T13:04:30.071Z,-1.31
2023-01-20T13:07:11.383Z,-1.39
2023-01-20T13:09:37.990Z,-1.38
2023-01-20T13:12:17.118Z,-1.38
2023-01-20T13:14:45.296Z,-1.46
2023-01-20T13:17:18.576Z,-1.48
2023-01-20T13:19:49.585Z,-1.51
2023-01-20T13:22:17.180Z,-1.57
2023-01-20T13:24:44.465Z,-1.56
2023-01-20T13:27:12.144Z,-1.63
2023-01-20T13:29:41.989Z,-1.62
2023-01-20T13:32:28.185Z,-1.51
2023-01-20T13:34:54.906Z,-1.62
2023-01-20T13:37:21.371Z,-1.71
2023-01-20T13:39:48.495Z,-1.65
2023-01-20T13:42:33.819Z,-1.72
2023-01-20T13:45:15.600Z,-1.82
2023-01-20T13:47:45.434Z,-1.76
2023-01-20T13:50:35.243Z,-1.66
2023-01-20T13:53:10.744Z,-1.71
2023-01-20T13:55:44.067Z,-1.73
2023-01-20T13:58:13.557Z,-1.67
2023-01-20T14:00:39.979Z,-1.59
2023-01-20T14:03:25.308Z,-1.49
2023-01-20T14:06:01.460Z,-1.53
2023-01-20T14:08:32.251Z,-1.63
2023-01-20T14:11:08.291Z,-1.49
2023-01-20T14:13:34.908Z,-1.48
2023-01-20T14:16:01.503Z,-1.55
2023-01-20T14:18:28.084Z,-1.57
2023-01-20T14:21:13.279Z,-1.59
2023-01-20T14:23:43.174Z,-1.60
2023-01-20T14:26:10.986Z,-1.43
2023-01-20T14:28:41.507Z,-1.40
2023-01-20T14:31:17.351Z,-1.50
2023-01-20T14:33:50.302Z,-1.34
2023-01-20T14:36:20.867Z,-1.41
2023-01-20T14:38:58.254Z,-1.51
2023-01-20T14:41:32.287Z,-1.55
2023-01-20T14:43:58.793Z,-1.58
2023-01-20T14:46:25.415Z,-1.51
2023-01-20T14:48:52.166Z,-1.53
2023-01-20T14:51:18.665Z,-1.65
2023-01-20T14:53:45.574Z,-1.73
2023-01-20T14:56:19.370Z,-1.70
2023-01-20T14:58:46.935Z,-1.69
2023-01-20T15:01:23.193Z,-1.63
2023-01-20T15:03:59.530Z,-1.56
2023-01-20T15:06:26.188Z,-1.60
2023-01-20T15:09:05.607Z,-1.68
2023-01-20T15:11:32.899Z,-1.58
2023-01-20T15:14:02.087Z,-1.62
2023-01-20T15:16:29.351Z,-1.57
2023-01-20T15:19:17.697Z,-1.56
2023-01-20T15:21:53.703Z,-1.63
2023-01-20T15:24:23.205Z,-1.62
2023-01-20T15:26:50.730Z,-1.61
2023-01-20T15:29:29.347Z,-1.66
2023-01-20T15:31:56.562Z,-1.54
2023-01-20T15:34:23.436Z,-1.59
2023-01-20T15:36:50.468Z,-1.66
2023-01-20T15:39:17.750Z,-1.73
2023-01-20T15:41:44.284Z,-1.74
2023-01-20T15:44:10.856Z,-1.70
2023-01-20T15:46:38.654Z,-1.75
2023-01-20T15:49:06.899Z,-1.57
2023-01-20T15:51:33.559Z,-1.68
2023-01-20T15:54:00.053Z,-1.73
2023-01-20T15:56:27.089Z,-1.70
2023-01-20T15:58:53.629Z,-1.58
2023-01-20T16:01:20.947Z,-1.68
2023-01-20T16:03:47.550Z,-1.58
2023-01-20T16:06:18.219Z,-1.56
2023-01-20T16:08:48.282Z,-1.67
2023-01-20T16:11:14.913Z,-1.72
2023-01-20T16:13:41.564Z,-1.70
2023-01-20T16:16:15.034Z,-1.53
2023-01-20T16:18:41.617Z,-1.44
2023-01-20T16:21:10.149Z,-1.48
2023-01-20T16:23:36.664Z,-1.46
2023-01-20T16:26:05.690Z,-1.53
2023-01-20T16:28:32.302Z,-1.44
2023-01-20T16:31:00.177Z,-1.43
2023-01-20T16:33:27.131Z,-1.45
2023-01-20T16:35:54.189Z,-1.20
2023-01-20T16:38:21.975Z,-1.23
2023-01-20T16:40:52.162Z,-1.24
2023-01-20T16:43:19.511Z,-1.26
2023-01-20T16:45:54.774Z,-1.29
2023-01-20T16:48:24.813Z,-1.41
2023-01-20T16:50:51.608Z,-1.45
2023-01-20T16:53:18.567Z,-1.46
2023-01-20T16:55:48.193Z,-1.48
2023-01-20T16:58:14.967Z,-1.49
2023-01-20T17:00:41.639Z,-1.52
2023-01-20T17:03:08.160Z,-1.57
2023-01-20T17:05:34.628Z,-1.48
2023-01-20T17:08:01.045Z,-1.46
2023-01-20T17:10:29.500Z,-1.34
2023-01-20T17:12:56.183Z,-1.30
2023-01-20T17:15:22.731Z,-1.26
2023-01-20T17:17:54.635Z,-1.34
2023-01-20T17:20:21.312Z,-1.29
2023-01-20T17:22:47.778Z,-1.34
2023-01-20T17:25:16.228Z,-1.32
2023-01-20T17:27:44.987Z,-1.39
2023-01-20T17:30:11.687Z,-1.44
2023-01-20T17:32:38.343Z,-1.21
2023-01-20T17:37:47.680Z,-1.21
2023-01-20T17:40:14.819Z,-1.25
2023-01-20T17:42:43.531Z,-1.18
2023-01-20T17:45:10.416Z,-1.12
2023-01-20T17:47:36.873Z,-1.22
2023-01-20T17:50:03.565Z,-1.26
2023-01-20T17:52:30.067Z,-1.32
2023-01-20T17:54:56.692Z,-1.15
2023-01-20T17:57:23.099Z,-1.07
2023-01-20T17:59:49.671Z,-1.13
2023-01-20T18:02:18.598Z,-1.12
2023-01-20T18:04:45.179Z,-1.26
2023-01-20T18:07:11.628Z,-1.33
2023-01-20T18:09:38.092Z,-1.41
2023-01-20T18:12:04.644Z,-1.40
2023-01-20T18:14:31.204Z,-1.41
2023-01-20T18:16:57.927Z,-1.41
2023-01-20T18:19:31.685Z,-1.53
2023-01-20T18:21:59.811Z,-1.62
2023-01-20T18:24:26.535Z,-1.53
2023-01-20T18:26:52.966Z,-1.44
2023-01-20T18:29:19.657Z,-1.52
2023-01-20T18:31:46.899Z,-1.63
2023-01-20T18:34:15.849Z,-1.66
2023-01-20T18:36:44.912Z,-1.43
2023-01-20T18:39:17.541Z,-1.45
2023-01-20T18:41:43.979Z,-1.56
2023-01-20T18:44:10.455Z,-1.48
2023-01-20T18:46:36.941Z,-1.44
2023-01-20T18:49:03.695Z,-1.32
2023-01-20T18:51:30.172Z,-1.39
2023-01-20T18:54:01.103Z,-1.30
2023-01-20T18:56:27.884Z,-1.37
2023-01-20T18:58:54.521Z,-1.47
2023-01-20T19:01:22.208Z,-1.49
2023-01-20T19:03:49.992Z,-1.55
2023-01-20T19:06:17.452Z,-1.67
2023-01-20T19:08:44.678Z,-1.55
2023-01-20T19:11:15.294Z,-1.56
2023-01-20T19:13:42.090Z,-1.33
2023-01-20T19:16:10.544Z,-1.26
2023-01-20T19:18:37.330Z,-1.38
2023-01-20T19:21:04.704Z,-1.50
2023-01-20T19:23:31.290Z,-1.48
2023-01-20T19:26:01.557Z,-1.49
2023-01-20T19:28:28.174Z,-1.31
2023-01-20T19:30:54.773Z,-1.27
2023-01-20T19:33:21.266Z,-1.46
2023-01-20T19:35:47.779Z,-1.53
2023-01-20T19:38:14.433Z,-1.42
2023-01-20T19:40:40.956Z,-1.53
2023-01-20T19:43:07.390Z,-1.49
2023-01-20T19:45:45.417Z,-1.55
2023-01-20T19:48:12.482Z,-1.49
2023-01-20T19:50:39.025Z,-1.49
2023-01-20T19:53:05.485Z,-1.46
2023-01-20T19:55:31.900Z,-1.51
2023-01-20T19:57:58.415Z,-1.45
2023-01-20T20:00:24.864Z,-1.44
2023-01-20T20:02:53.337Z,-1.51
2023-01-20T20:05:19.866Z,-1.59
2023-01-20T20:07:46.544Z,-1.52
2023-01-20T20:10:12.987Z,-1.57
2023-01-20T20:12:39.634Z,-1.49
2023-01-20T20:15:06.486Z,-1.51
2023-01-20T20:17:33.363Z,-1.45
2023-01-20T20:19:59.820Z,-1.38
2023-01-20T20:22:26.341Z,-1.53
2023-01-20T20:24:52.837Z,-1.62
2023-01-20T20:27:19.370Z,-1.63
2023-01-20T20:29:45.812Z,-1.55
2023-01-20T20:32:12.332Z,-1.44
2023-01-20T20:34:51.010Z,-1.51
2023-01-20T20:37:17.465Z,-1.44
2023-01-20T20:39:43.928Z,-1.48
2023-01-20T20:42:10.436Z,-1.45
2023-01-20T20:44:36.938Z,-1.59
2023-01-20T20:47:03.901Z,-1.58
2023-01-20T20:49:32.007Z,-1.53
2023-01-20T20:51:58.451Z,-1.54
2023-01-20T20:54:25.044Z,-1.51
2023-01-20T20:56:51.833Z,-1.40
2023-01-20T20:59:23.025Z,-1.49
2023-01-20T21:01:49.811Z,-1.48
2023-01-20T21:04:16.540Z,-1.46
2023-01-20T21:06:43.078Z,-1.40
2023-01-20T21:09:09.826Z,-1.43
2023-01-20T21:11:38.289Z,-1.43
2023-01-20T21:14:04.973Z,-1.44
2023-01-20T21:16:31.516Z,-1.46
2023-01-20T21:18:58.351Z,-1.54
2023-01-20T21:21:25.117Z,-1.66
2023-01-20T21:23:52.283Z,-1.61
2023-01-20T21:26:19.067Z,-1.45
2023-01-20T21:28:45.621Z,-1.47
2023-01-20T21:31:13.791Z,-1.40
2023-01-20T21:33:40.860Z,-1.53
2023-01-20T21:36:09.243Z,-1.43
2023-01-20T21:38:36.168Z,-1.53
2023-01-20T21:41:06.993Z,-1.49
2023-01-20T21:43:52.090Z,-1.35
2023-01-20T21:46:18.851Z,-1.39
2023-01-20T21:49:04.159Z,-1.45
2023-01-20T21:51:49.374Z,-1.51
2023-01-20T21:54:15.971Z,-1.55
2023-01-20T21:56:42.499Z,-1.67
2023-01-20T21:59:09.067Z,-1.66
2023-01-20T22:01:35.665Z,-1.69
2023-01-20T22:04:02.189Z,-1.68
2023-01-20T22:06:28.837Z,-1.71
2023-01-20T22:08:55.318Z,-1.48
2023-01-20T22:11:21.878Z,-1.52
2023-01-20T22:13:48.325Z,-1.55
2023-01-20T22:16:14.848Z,-1.55
2023-01-20T22:18:45.009Z,-1.65
2023-01-20T22:21:11.506Z,-1.67
2023-01-20T22:23:38.055Z,-1.55
2023-01-20T22:26:05.533Z,-1.59
2023-01-20T22:28:38.454Z,-1.53
2023-01-20T22:31:08.446Z,-1.46
2023-01-20T22:33:34.971Z,-1.57
2023-01-20T22:36:01.575Z,-1.63
2023-01-20T22:38:28.044Z,-1.65
2023-01-20T22:40:54.475Z,-1.68
2023-01-20T22:43:20.914Z,-1.67
2023-01-20T22:45:48.484Z,-1.71
2023-01-20T22:48:15.208Z,-1.70
2023-01-20T22:50:41.932Z,-1.63
2023-01-20T22:53:13.273Z,-1.76
2023-01-20T22:55:49.026Z,-1.70
2023-01-20T22:58:26.159Z,-1.79
2023-01-20T23:00:52.623Z,-1.85
2023-01-20T23:03:19.676Z,-1.77
2023-01-20T23:05:52.844Z,-1.74
2023-01-20T23:08:19.504Z,-1.76
2023-01-20T23:10:49.152Z,-1.71
2023-01-20T23:13:16.101Z,-1.85
2023-01-20T23:15:42.660Z,-1.81
2023-01-20T23:18:09.871Z,-1.83
2023-01-20T23:20:36.447Z,-1.86
2023-01-20T23:23:02.929Z,-1.84
2023-01-20T23:25:29.784Z,-1.87
2023-01-20T23:27:56.260Z,-1.88
2023-01-20T23:30:22.905Z,-1.76
2023-01-20T23:32:49.335Z,-1.76
2023-01-20T23:35:15.816Z,-1.79
2023-01-20T23:37:42.329Z,-1.89
2023-01-20T23:40:09.198Z,-1.83
2023-01-20T23:42:37.015Z,-1.83
2023-01-20T23:45:03.548Z,-1.80
2023-01-20T23:47:30.029Z,-1.77
2023-01-20T23:49:56.529Z,-1.79
2023-01-20T23:52:24.920Z,-1.81
2023-01-20T23:54:52.276Z,-1.86
2023-01-20T23:57:18.885Z,-1.81
2023-01-20T23:59:45.571Z,-1.80
